Ermelo Airport

Airport
ICAO code: 
FAEO
Summary
ICAO Region: 
AFI
Territory: 
Location: 
, Mpumalanga
Serving: 
Ermelo
Elevation: 
5700 ft
Coordinates: 
Aerial View: 
26° 29' 44.318" S, 29° 58' 47.15" E
Metar
Observation
FAEO 290644Z 29008KT 9999 SCT020 22/15 Q1025
Station
Ermelo
Date/Time
2021-11-29 06:44:00
Wind direction
290°
Wind speed
08 kts
Lowest cloud amount
scattered clouds
Temperature
22°C
Dew point
15°C
Humidity
64%
QNH
1025 hPa
Weather condition
n/a

Runways

Designator Length Width Surface Rops
13/31 1550 10 ASP No/No
Airport map: 
Aerial View: 

SKYbrary Partners:

Safety knowledge contributed by: